sensor_id;sensor_type;location;lat;lon;timestamp;pressure;altitude;pressure_sealevel;temperature;humidity
63115;BME280;49208;50.874;6.466;2023-02-19T07:02:49;100968.22;;;8.01;100.00
63115;BME280;49208;50.874;6.466;2023-02-19T07:05:20;100973.50;;;8.04;100.00
63115;BME280;49208;50.874;6.466;2023-02-19T07:07:46;100976.16;;;8.02;100.00
63115;BME280;49208;50.874;6.466;2023-02-19T07:10:11;100974.44;;;8.00;100.00
63115;BME280;49208;50.874;6.466;2023-02-19T07:12:36;100989.41;;;8.02;100.00
63115;BME280;49208;50.874;6.466;2023-02-19T07:15:02;100997.38;;;8.02;100.00
63115;BME280;49208;50.874;6.466;2023-02-19T07:17:27;101007.97;;;8.02;100.00
63115;BME280;49208;50.874;6.466;2023-02-19T07:19:52;101004.47;;;8.02;100.00
63115;BME280;49208;50.874;6.466;2023-02-19T07:22:18;101008.88;;;8.01;100.00
63115;BME280;49208;50.874;6.466;2023-02-19T07:24:43;101011.56;;;8.00;100.00
63115;BME280;49208;50.874;6.466;2023-02-19T07:27:08;101003.63;;;7.97;100.00
63115;BME280;49208;50.874;6.466;2023-02-19T07:29:34;101015.13;;;7.97;100.00
63115;BME280;49208;50.874;6.466;2023-02-19T07:31:59;101024.81;;;7.98;100.00
63115;BME280;49208;50.874;6.466;2023-02-19T07:34:24;101016.00;;;7.98;100.00
63115;BME280;49208;50.874;6.466;2023-02-19T07:36:50;101023.97;;;7.96;100.00
63115;BME280;49208;50.874;6.466;2023-02-19T07:39:15;101033.66;;;7.99;100.00
63115;BME280;49208;50.874;6.466;2023-02-19T07:41:40;101028.41;;;7.97;100.00
63115;BME280;49208;50.874;6.466;2023-02-19T07:44:06;101035.44;;;7.97;100.00
63115;BME280;49208;50.874;6.466;2023-02-19T07:46:31;101036.38;;;7.94;100.00
63115;BME280;49208;50.874;6.466;2023-02-19T07:48:58;101043.41;;;7.97;100.00
63115;BME280;49208;50.874;6.466;2023-02-19T07:51:23;101049.59;;;7.97;100.00
63115;BME280;49208;50.874;6.466;2023-02-19T07:53:49;101061.94;;;8.00;100.00
63115;BME280;49208;50.874;6.466;2023-02-19T07:56:15;101061.84;;;8.04;100.00
63115;BME280;49208;50.874;6.466;2023-02-19T07:58:41;101064.47;;;8.06;100.00
63115;BME280;49208;50.874;6.466;2023-02-19T08:01:09;101067.13;;;8.07;100.00
63115;BME280;49208;50.874;6.466;2023-02-19T08:03:36;101071.50;;;8.08;100.00
63115;BME280;49208;50.874;6.466;2023-02-19T08:06:02;101066.22;;;8.07;100.00
63115;BME280;49208;50.874;6.466;2023-02-19T08:08:28;101067.03;;;8.12;100.00
63115;BME280;49208;50.874;6.466;2023-02-19T08:10:54;101074.91;;;8.17;100.00
63115;BME280;49208;50.874;6.466;2023-02-19T08:13:37;101076.69;;;8.18;100.00
63115;BME280;49208;50.874;6.466;2023-02-19T08:18:30;101096.88;;;8.26;100.00
63115;BME280;49208;50.874;6.466;2023-02-19T08:20:57;101096.78;;;8.33;100.00
63115;BME280;49208;50.874;6.466;2023-02-19T08:23:23;101102.88;;;8.39;100.00
63115;BME280;49208;50.874;6.466;2023-02-19T08:25:50;101097.50;;;8.45;100.00
63115;BME280;49208;50.874;6.466;2023-02-19T08:28:17;101105.34;;;8.53;100.00
63115;BME280;49208;50.874;6.466;2023-02-19T08:30:44;101103.56;;;8.54;100.00
63115;BME280;49208;50.874;6.466;2023-02-19T08:33:14;101115.00;;;8.56;100.00
63115;BME280;49208;50.874;6.466;2023-02-19T08:35:40;101113.22;;;8.56;100.00
63115;BME280;49208;50.874;6.466;2023-02-19T08:38:07;101114.16;;;8.55;100.00
63115;BME280;49208;50.874;6.466;2023-02-19T08:40:33;101115.88;;;8.58;100.00
63115;BME280;49208;50.874;6.466;2023-02-19T08:43:07;101107.00;;;8.59;100.00
63115;BME280;49208;50.874;6.466;2023-02-19T08:45:33;101106.09;;;8.60;100.00
63115;BME280;49208;50.874;6.466;2023-02-19T08:47:58;101106.09;;;8.61;100.00
63115;BME280;49208;50.874;6.466;2023-02-19T08:50:25;101119.34;;;8.61;100.00
63115;BME280;49208;50.874;6.466;2023-02-19T08:52:50;101127.38;;;8.57;100.00
63115;BME280;49208;50.874;6.466;2023-02-19T08:55:16;101131.88;;;8.52;100.00
63115;BME280;49208;50.874;6.466;2023-02-19T08:57:42;101133.69;;;8.48;100.00
63115;BME280;49208;50.874;6.466;2023-02-19T09:00:08;101133.69;;;8.49;100.00
63115;BME280;49208;50.874;6.466;2023-02-19T09:02:34;101125.63;;;8.56;100.00
63115;BME280;49208;50.874;6.466;2023-02-19T09:05:00;101126.38;;;8.64;100.00
63115;BME280;49208;50.874;6.466;2023-02-19T09:07:25;101131.50;;;8.75;100.00
63115;BME280;49208;50.874;6.466;2023-02-19T09:09:51;101132.16;;;8.87;100.00
63115;BME280;49208;50.874;6.466;2023-02-19T09:12:16;101128.28;;;9.07;100.00
63115;BME280;49208;50.874;6.466;2023-02-19T09:14:41;101141.19;;;9.25;100.00
63115;BME280;49208;50.874;6.466;2023-02-19T09:17:07;101127.78;;;9.31;100.00
63115;BME280;49208;50.874;6.466;2023-02-19T09:19:33;101137.34;;;9.42;100.00
63115;BME280;49208;50.874;6.466;2023-02-19T09:21:59;101140.59;;;9.56;100.00
63115;BME280;49208;50.874;6.466;2023-02-19T09:24:24;101129.81;;;9.65;100.00
63115;BME280;49208;50.874;6.466;2023-02-19T09:26:51;101137.38;;;9.84;100.00
63115;BME280;49208;50.874;6.466;2023-02-19T09:29:17;101139.59;;;10.04;100.00
63115;BME280;49208;50.874;6.466;2023-02-19T09:31:43;101145.44;;;10.21;100.00
63115;BME280;49208;50.874;6.466;2023-02-19T09:34:08;101149.81;;;10.22;100.00
63115;BME280;49208;50.874;6.466;2023-02-19T09:36:36;101148.31;;;10.10;100.00
63115;BME280;49208;50.874;6.466;2023-02-19T09:39:04;101166.59;;;9.85;100.00
63115;BME280;49208;50.874;6.466;2023-02-19T09:41:37;101154.59;;;9.66;100.00
63115;BME280;49208;50.874;6.466;2023-02-19T09:44:08;101158.59;;;9.42;100.00
63115;BME280;49208;50.874;6.466;2023-02-19T09:46:42;101154.53;;;9.24;100.00
63115;BME280;49208;50.874;6.466;2023-02-19T09:49:17;101175.09;;;9.13;100.00
63115;BME280;49208;50.874;6.466;2023-02-19T09:54:42;101185.78;;;9.08;100.00
63115;BME280;49208;50.874;6.466;2023-02-19T09:57:19;101183.88;;;9.18;100.00
63115;BME280;49208;50.874;6.466;2023-02-19T09:59:49;101185.47;;;9.26;100.00
63115;BME280;49208;50.874;6.466;2023-02-19T10:02:21;101192.47;;;9.30;100.00
63115;BME280;49208;50.874;6.466;2023-02-19T10:04:48;101198.66;;;9.31;100.00
63115;BME280;49208;50.874;6.466;2023-02-19T10:07:23;101203.22;;;9.24;100.00
63115;BME280;49208;50.874;6.466;2023-02-19T10:12:44;101210.75;;;8.98;100.00
63115;BME280;49208;50.874;6.466;2023-02-19T10:15:11;101204.69;;;8.89;100.00
63115;BME280;49208;50.874;6.466;2023-02-19T10:17:40;101213.63;;;8.84;100.00
63115;BME280;49208;50.874;6.466;2023-02-19T10:20:18;101219.00;;;8.81;100.00
63115;BME280;49208;50.874;6.466;2023-02-19T10:22:47;101221.72;;;8.76;100.00
63115;BME280;49208;50.874;6.466;2023-02-19T10:25:14;101224.41;;;8.75;100.00
63115;BME280;49208;50.874;6.466;2023-02-19T10:27:40;101233.22;;;8.77;100.00
63115;BME280;49208;50.874;6.466;2023-02-19T10:30:08;101249.97;;;8.80;100.00
63115;BME280;49208;50.874;6.466;2023-02-19T10:32:36;101245.47;;;8.84;100.00
63115;BME280;49208;50.874;6.466;2023-02-19T10:35:15;101241.09;;;8.81;100.00
63115;BME280;49208;50.874;6.466;2023-02-19T10:37:45;101236.81;;;8.74;100.00
63115;BME280;49208;50.874;6.466;2023-02-19T10:40:15;101249.31;;;8.66;100.00
63115;BME280;49208;50.874;6.466;2023-02-19T10:42:46;101257.34;;;8.61;100.00
63115;BME280;49208;50.874;6.466;2023-02-19T10:45:22;101268.81;;;8.63;100.00
63115;BME280;49208;50.874;6.466;2023-02-19T10:47:49;101271.31;;;8.73;100.00
63115;BME280;49208;50.874;6.466;2023-02-19T10:50:19;101266.50;;;8.99;100.00
63115;BME280;49208;50.874;6.466;2023-02-19T10:52:51;101275.50;;;9.43;100.00
63115;BME280;49208;50.874;6.466;2023-02-19T10:55:25;101278.38;;;9.81;100.00
63115;BME280;49208;50.874;6.466;2023-02-19T10:57:52;101276.94;;;10.08;100.00
63115;BME280;49208;50.874;6.466;2023-02-19T11:00:20;101274.06;;;10.19;100.00
63115;BME280;49208;50.874;6.466;2023-02-19T11:03:20;101271.63;;;10.08;100.00
63115;BME280;49208;50.874;6.466;2023-02-19T11:05:53;101286.97;;;9.94;100.00
63115;BME280;49208;50.874;6.466;2023-02-19T11:08:22;101279.19;;;9.84;100.00
63115;BME280;49208;50.874;6.466;2023-02-19T11:10:48;101277.63;;;9.73;100.00
63115;BME280;49208;50.874;6.466;2023-02-19T11:13:27;101293.03;;;9.54;100.00
63115;BME280;49208;50.874;6.466;2023-02-19T11:15:55;101302.06;;;9.45;100.00
63115;BME280;49208;50.874;6.466;2023-02-19T11:18:31;101304.84;;;9.37;100.00
63115;BME280;49208;50.874;6.466;2023-02-19T11:21:02;101300.50;;;9.31;100.00
63115;BME280;49208;50.874;6.466;2023-02-19T11:23:29;101303.31;;;9.22;100.00
63115;BME280;49208;50.874;6.466;2023-02-19T11:25:58;101301.72;;;9.10;100.00
63115;BME280;49208;50.874;6.466;2023-02-19T11:28:34;101304.56;;;8.98;100.00
63115;BME280;49208;50.874;6.466;2023-02-19T11:31:22;101311.81;;;8.87;100.00
63115;BME280;49208;50.874;6.466;2023-02-19T11:38:47;101311.25;;;8.65;100.00
63115;BME280;49208;50.874;6.466;2023-02-19T11:42:19;101301.47;;;8.67;100.00
63115;BME280;49208;50.874;6.466;2023-02-19T12:00:48;101280.81;;;9.43;100.00
63115;BME280;49208;50.874;6.466;2023-02-19T12:04:05;101282.06;;;9.72;100.00
63115;BME280;49208;50.874;6.466;2023-02-19T12:09:15;101272.78;;;9.95;100.00
63115;BME280;49208;50.874;6.466;2023-02-19T12:14:30;101268.59;;;10.26;100.00
63115;BME280;49208;50.874;6.466;2023-02-19T12:22:42;101269.00;;;10.50;100.00
63115;BME280;49208;50.874;6.466;2023-02-19T12:28:17;101268.31;;;10.42;100.00
63115;BME280;49208;50.874;6.466;2023-02-19T12:31:01;101270.25;;;10.34;100.00
63115;BME280;49208;50.874;6.466;2023-02-19T12:34:44;101264.38;;;10.15;100.00
63115;BME280;49208;50.874;6.466;2023-02-19T12:39:58;101282.56;;;9.93;100.00
63115;BME280;49208;50.874;6.466;2023-02-19T12:42:43;101287.16;;;9.86;100.00
63115;BME280;49208;50.874;6.466;2023-02-19T12:45:26;101289.91;;;9.80;100.00
63115;BME280;49208;50.874;6.466;2023-02-19T12:48:17;101289.22;;;9.68;100.00
63115;BME280;49208;50.874;6.466;2023-02-19T12:50:47;101286.69;;;9.62;100.00
63115;BME280;49208;50.874;6.466;2023-02-19T12:55:55;101286.94;;;9.48;100.00
63115;BME280;49208;50.874;6.466;2023-02-19T12:58:42;101295.91;;;9.40;100.00
63115;BME280;49208;50.874;6.466;2023-02-19T13:01:15;101293.25;;;9.40;100.00
63115;BME280;49208;50.874;6.466;2023-02-19T13:06:40;101296.81;;;9.40;100.00
63115;BME280;49208;50.874;6.466;2023-02-19T13:11:43;101301.22;;;9.41;100.00
63115;BME280;49208;50.874;6.466;2023-02-19T13:17:17;101302.13;;;9.40;100.00
63115;BME280;49208;50.874;6.466;2023-02-19T13:19:45;101296.75;;;9.45;100.00
63115;BME280;49208;50.874;6.466;2023-02-19T13:22:37;101296.63;;;9.53;100.00
63115;BME280;49208;50.874;6.466;2023-02-19T13:26:19;101294.69;;;9.61;100.00
63115;BME280;49208;50.874;6.466;2023-02-19T13:28:19;101298.06;;;9.69;100.00
63115;BME280;49208;50.874;6.466;2023-02-19T13:31:06;101308.66;;;9.74;100.00
63115;BME280;49208;50.874;6.466;2023-02-19T13:33:42;101313.88;;;9.77;100.00
63115;BME280;49208;50.874;6.466;2023-02-19T13:36:15;101313.00;;;9.76;100.00
63115;BME280;49208;50.874;6.466;2023-02-19T13:38:46;101309.53;;;9.73;100.00
63115;BME280;49208;50.874;6.466;2023-02-19T13:41:18;101307.84;;;9.68;100.00
63115;BME280;49208;50.874;6.466;2023-02-19T13:43:44;101313.97;;;9.74;100.00
63115;BME280;49208;50.874;6.466;2023-02-19T13:46:13;101301.53;;;9.74;100.00
63115;BME280;49208;50.874;6.466;2023-02-19T13:48:41;101306.09;;;9.67;98.07
63115;BME280;49208;50.874;6.466;2023-02-19T13:59:20;101320.63;;;9.46;100.00
63115;BME280;49208;50.874;6.466;2023-02-19T14:14:49;101328.59;;;9.46;100.00
63115;BME280;49208;50.874;6.466;2023-02-19T14:17:44;101341.03;;;9.44;100.00
63115;BME280;49208;50.874;6.466;2023-02-19T14:28:13;101370.41;;;9.35;100.00
63115;BME280;49208;50.874;6.466;2023-02-19T14:33:48;101367.84;;;9.27;100.00
63115;BME280;49208;50.874;6.466;2023-02-19T14:36:32;101362.59;;;9.26;100.00
63115;BME280;49208;50.874;6.466;2023-02-19T14:39:09;101379.47;;;9.22;100.00
63115;BME280;49208;50.874;6.466;2023-02-19T14:41:38;101369.75;;;9.21;100.00
63115;BME280;49208;50.874;6.466;2023-02-19T14:44:13;101373.31;;;9.18;100.00
63115;BME280;49208;50.874;6.466;2023-02-19T14:46:54;101382.25;;;9.14;100.00
63115;BME280;49208;50.874;6.466;2023-02-19T14:49:40;101381.34;;;9.15;100.00
63115;BME280;49208;50.874;6.466;2023-02-19T14:52:36;101384.88;;;9.16;100.00
63115;BME280;49208;50.874;6.466;2023-02-19T14:55:25;101387.53;;;9.17;100.00
63115;BME280;49208;50.874;6.466;2023-02-19T14:57:53;101391.00;;;9.19;100.00
63115;BME280;49208;50.874;6.466;2023-02-19T15:00:26;101395.44;;;9.19;100.00
63115;BME280;49208;50.874;6.466;2023-02-19T15:02:54;101395.50;;;9.16;100.00
63115;BME280;49208;50.874;6.466;2023-02-19T15:05:32;101384.97;;;9.11;100.00
63115;BME280;49208;50.874;6.466;2023-02-19T15:08:13;101382.41;;;9.02;100.00
63115;BME280;49208;50.874;6.466;2023-02-19T15:10:42;101383.34;;;8.99;100.00
63115;BME280;49208;50.874;6.466;2023-02-19T15:13:09;101393.13;;;8.94;100.00
63115;BME280;49208;50.874;6.466;2023-02-19T15:15:43;101375.56;;;8.85;100.00
63115;BME280;49208;50.874;6.466;2023-02-19T15:18:16;101370.31;;;8.81;100.00
63115;BME280;49208;50.874;6.466;2023-02-19T15:20:42;101369.53;;;8.74;100.00
63115;BME280;49208;50.874;6.466;2023-02-19T15:23:08;101357.19;;;8.72;100.00
63115;BME280;49208;50.874;6.466;2023-02-19T15:25:38;101365.16;;;8.68;100.00
63115;BME280;49208;50.874;6.466;2023-02-19T15:30:48;101356.41;;;8.62;100.00
63115;BME280;49208;50.874;6.466;2023-02-19T15:33:19;101347.59;;;8.60;100.00
63115;BME280;49208;50.874;6.466;2023-02-19T15:35:53;101339.66;;;8.57;100.00
63115;BME280;49208;50.874;6.466;2023-02-19T15:38:19;101338.78;;;8.56;100.00
63115;BME280;49208;50.874;6.466;2023-02-19T15:40:45;101331.75;;;8.54;100.00
63115;BME280;49208;50.874;6.466;2023-02-19T15:45:56;101319.38;;;8.53;100.00
63115;BME280;49208;50.874;6.466;2023-02-19T15:48:34;101311.41;;;8.53;100.00
63115;BME280;49208;50.874;6.466;2023-02-19T15:51:07;101309.66;;;8.52;99.65
63115;BME280;49208;50.874;6.466;2023-02-19T15:53:44;101314.09;;;8.49;99.51
63115;BME280;49208;50.874;6.466;2023-02-19T15:56:28;101317.66;;;8.48;99.82
63115;BME280;49208;50.874;6.466;2023-02-19T16:01:38;101310.59;;;8.47;99.29
63115;BME280;49208;50.874;6.466;2023-02-19T16:04:15;101313.25;;;8.46;98.77
63115;BME280;49208;50.874;6.466;2023-02-19T16:09:20;101322.19;;;8.39;100.00
63115;BME280;49208;50.874;6.466;2023-02-19T16:11:51;101324.84;;;8.37;100.00
63115;BME280;49208;50.874;6.466;2023-02-19T16:14:34;101325.75;;;8.35;100.00
63115;BME280;49208;50.874;6.466;2023-02-19T16:19:55;101339.16;;;8.24;100.00
63115;BME280;49208;50.874;6.466;2023-02-19T16:22:23;101343.59;;;8.22;100.00
63115;BME280;49208;50.874;6.466;2023-02-19T16:24:53;101346.28;;;8.17;100.00
63115;BME280;49208;50.874;6.466;2023-02-19T16:27:33;101360.47;;;8.15;100.00
63115;BME280;49208;50.874;6.466;2023-02-19T16:30:18;101368.47;;;8.10;100.00
63115;BME280;49208;50.874;6.466;2023-02-19T16:35:52;101370.28;;;8.06;100.00
63115;BME280;49208;50.874;6.466;2023-02-19T16:38:19;101379.16;;;8.02;100.00
63115;BME280;49208;50.874;6.466;2023-02-19T16:45:46;101383.66;;;7.93;100.00
63115;BME280;49208;50.874;6.466;2023-02-19T16:48:12;101389.00;;;7.89;100.00
63115;BME280;49208;50.874;6.466;2023-02-19T16:50:38;101393.44;;;7.86;100.00
63115;BME280;49208;50.874;6.466;2023-02-19T16:53:17;101398.78;;;7.83;100.00
63115;BME280;49208;50.874;6.466;2023-02-19T16:55:43;101399.66;;;7.82;100.00
63115;BME280;49208;50.874;6.466;2023-02-19T16:58:08;101411.19;;;7.81;100.00
63115;BME280;49208;50.874;6.466;2023-02-19T17:00:34;101403.22;;;7.78;100.00
63115;BME280;49208;50.874;6.466;2023-02-19T17:03:03;101410.31;;;7.76;100.00
63115;BME280;49208;50.874;6.466;2023-02-19T17:05:33;101411.22;;;7.75;100.00
63115;BME280;49208;50.874;6.466;2023-02-19T17:07:59;101415.66;;;7.73;100.00
63115;BME280;49208;50.874;6.466;2023-02-19T17:10:26;101425.38;;;7.71;100.00
63115;BME280;49208;50.874;6.466;2023-02-19T17:12:54;101426.25;;;7.69;100.00
63115;BME280;49208;50.874;6.466;2023-02-19T17:15:21;101443.94;;;7.71;100.00
63115;BME280;49208;50.874;6.466;2023-02-19T17:17:47;101443.06;;;7.68;100.00
63115;BME280;49208;50.874;6.466;2023-02-19T17:22:41;101451.91;;;7.69;100.00
63115;BME280;49208;50.874;6.466;2023-02-19T17:25:06;101453.69;;;7.68;100.00
63115;BME280;49208;50.874;6.466;2023-02-19T17:27:32;101454.56;;;7.67;100.00
63115;BME280;49208;50.874;6.466;2023-02-19T17:29:58;101458.09;;;7.65;100.00
63115;BME280;49208;50.874;6.466;2023-02-19T17:32:23;101465.19;;;7.61;100.00
63115;BME280;49208;50.874;6.466;2023-02-19T17:34:49;101467.84;;;7.64;100.00
63115;BME280;49208;50.874;6.466;2023-02-19T17:37:14;101481.09;;;7.61;100.00
63115;BME280;49208;50.874;6.466;2023-02-19T17:39:40;101474.03;;;7.60;100.00
63115;BME280;49208;50.874;6.466;2023-02-19T17:42:05;101472.31;;;7.58;100.00
63115;BME280;49208;50.874;6.466;2023-02-19T17:44:31;101466.13;;;7.54;100.00
63115;BME280;49208;50.874;6.466;2023-02-19T17:46:56;101475.81;;;7.55;100.00
63115;BME280;49208;50.874;6.466;2023-02-19T17:49:21;101471.44;;;7.54;100.00
63115;BME280;49208;50.874;6.466;2023-02-19T17:51:47;101480.28;;;7.52;100.00
63115;BME280;49208;50.874;6.466;2023-02-19T17:54:12;101485.59;;;7.52;100.00
63115;BME280;49208;50.874;6.466;2023-02-19T17:56:37;101483.81;;;7.51;100.00
63115;BME280;49208;50.874;6.466;2023-02-19T17:59:08;101483.81;;;7.51;100.00
63115;BME280;49208;50.874;6.466;2023-02-19T18:01:33;101480.28;;;7.48;100.00
63115;BME280;49208;50.874;6.466;2023-02-19T18:03:58;101488.25;;;7.47;100.00
63115;BME280;49208;50.874;6.466;2023-02-19T18:06:24;101492.66;;;7.45;100.00
63115;BME280;49208;50.874;6.466;2023-02-19T18:08:51;101502.44;;;7.41;100.00
63115;BME280;49208;50.874;6.466;2023-02-19T18:11:17;101506.84;;;7.39;100.00
63115;BME280;49208;50.874;6.466;2023-02-19T18:13:43;101511.28;;;7.36;100.00
63115;BME280;49208;50.874;6.466;2023-02-19T18:16:08;101505.97;;;7.34;100.00
63115;BME280;49208;50.874;6.466;2023-02-19T18:18:34;101509.53;;;7.32;100.00
63115;BME280;49208;50.874;6.466;2023-02-19T18:20:59;101515.72;;;7.31;100.00
63115;BME280;49208;50.874;6.466;2023-02-19T18:23:25;101514.00;;;7.26;100.00
63115;BME280;49208;50.874;6.466;2023-02-19T18:25:50;101508.69;;;7.25;100.00
63115;BME280;49208;50.874;6.466;2023-02-19T18:28:16;101507.81;;;7.24;100.00
63115;BME280;49208;50.874;6.466;2023-02-19T18:30:41;101498.97;;;7.24;100.00
63115;BME280;49208;50.874;6.466;2023-02-19T18:33:06;101504.28;;;7.22;100.00
63115;BME280;49208;50.874;6.466;2023-02-19T18:35:35;101505.16;;;7.20;100.00
63115;BME280;49208;50.874;6.466;2023-02-19T18:38:00;101525.47;;;7.19;100.00
63115;BME280;49208;50.874;6.466;2023-02-19T18:40:25;101521.09;;;7.18;100.00
63115;BME280;49208;50.874;6.466;2023-02-19T18:42:51;101517.56;;;7.16;100.00
63115;BME280;49208;50.874;6.466;2023-02-19T18:45:17;101523.72;;;7.18;100.00
63115;BME280;49208;50.874;6.466;2023-02-19T18:47:47;101514.03;;;7.13;100.00
63115;BME280;49208;50.874;6.466;2023-02-19T18:50:13;101518.47;;;7.12;100.00
63115;BME280;49208;50.874;6.466;2023-02-19T18:52:45;101521.09;;;7.11;100.00
63115;BME280;49208;50.874;6.466;2023-02-19T18:55:13;101514.06;;;7.08;100.00
63115;BME280;49208;50.874;6.466;2023-02-19T18:57:39;101517.59;;;7.08;100.00
63115;BME280;49208;50.874;6.466;2023-02-19T19:00:06;101519.34;;;7.06;100.00
63115;BME280;49208;50.874;6.466;2023-02-19T19:02:32;101520.25;;;7.04;100.00
63115;BME280;49208;50.874;6.466;2023-02-19T19:04:57;101520.25;;;7.02;100.00
63115;BME280;49208;50.874;6.466;2023-02-19T19:07:22;101522.00;;;7.03;100.00
63115;BME280;49208;50.874;6.466;2023-02-19T19:09:48;101529.97;;;7.00;100.00
63115;BME280;49208;50.874;6.466;2023-02-19T19:12:14;101540.56;;;7.02;100.00
63115;BME280;49208;50.874;6.466;2023-02-19T19:14:39;101526.44;;;7.00;100.00
63115;BME280;49208;50.874;6.466;2023-02-19T19:17:05;101520.28;;;6.98;100.00
63115;BME280;49208;50.874;6.466;2023-02-19T19:19:30;101531.72;;;6.97;100.00
63115;BME280;49208;50.874;6.466;2023-02-19T19:21:56;101525.56;;;6.95;100.00
63115;BME280;49208;50.874;6.466;2023-02-19T19:24:22;101533.53;;;6.92;100.00
63115;BME280;49208;50.874;6.466;2023-02-19T19:26:49;101531.78;;;6.89;100.00
63115;BME280;49208;50.874;6.466;2023-02-19T19:29:16;101542.34;;;6.86;100.00
63115;BME280;49208;50.874;6.466;2023-02-19T19:31:42;101540.59;;;6.83;100.00
63115;BME280;49208;50.874;6.466;2023-02-19T19:34:08;101534.44;;;6.80;100.00
63115;BME280;49208;50.874;6.466;2023-02-19T19:36:33;101535.34;;;6.79;100.00
63115;BME280;49208;50.874;6.466;2023-02-19T19:38:59;101555.63;;;6.77;100.00
63115;BME280;49208;50.874;6.466;2023-02-19T19:41:24;101560.00;;;6.78;100.00
63115;BME280;49208;50.874;6.466;2023-02-19T19:43:50;101561.78;;;6.79;100.00
63115;BME280;49208;50.874;6.466;2023-02-19T19:46:16;101563.53;;;6.78;100.00
63115;BME280;49208;50.874;6.466;2023-02-19T19:48:43;101561.78;;;6.77;100.00
63115;BME280;49208;50.874;6.466;2023-02-19T19:51:09;101556.50;;;6.77;100.00
63115;BME280;49208;50.874;6.466;2023-02-19T19:53:34;101557.38;;;6.76;100.00
63115;BME280;49208;50.874;6.466;2023-02-19T19:56:00;101558.25;;;6.75;100.00
63115;BME280;49208;50.874;6.466;2023-02-19T19:58:25;101550.31;;;6.75;100.00
63115;BME280;49208;50.874;6.466;2023-02-19T20:00:51;101547.69;;;6.75;100.00
63115;BME280;49208;50.874;6.466;2023-02-19T20:03:19;101549.44;;;6.73;100.00
63115;BME280;49208;50.874;6.466;2023-02-19T20:05:46;101557.38;;;6.72;100.00
63115;BME280;49208;50.874;6.466;2023-02-19T20:08:12;101562.66;;;6.72;100.00
63115;BME280;49208;50.874;6.466;2023-02-19T20:10:38;101552.09;;;6.70;100.00
63115;BME280;49208;50.874;6.466;2023-02-19T20:13:04;101552.97;;;6.69;100.00
63115;BME280;49208;50.874;6.466;2023-02-19T20:15:29;101563.56;;;6.67;100.00
63115;BME280;49208;50.874;6.466;2023-02-19T20:17:55;101566.19;;;6.66;100.00
63115;BME280;49208;50.874;6.466;2023-02-19T20:20:21;101567.97;;;6.64;100.00
63115;BME280;49208;50.874;6.466;2023-02-19T20:22:47;101568.00;;;6.62;100.00
63115;BME280;49208;50.874;6.466;2023-02-19T20:25:13;101568.84;;;6.60;100.00
63115;BME280;49208;50.874;6.466;2023-02-19T20:27:40;101569.75;;;6.59;100.00
63115;BME280;49208;50.874;6.466;2023-02-19T20:30:06;101575.03;;;6.57;100.00
63115;BME280;49208;50.874;6.466;2023-02-19T20:32:32;101578.59;;;6.56;100.00
63115;BME280;49208;50.874;6.466;2023-02-19T20:34:57;101580.34;;;6.54;100.00
63115;BME280;49208;50.874;6.466;2023-02-19T20:37:22;101585.63;;;6.54;100.00
63115;BME280;49208;50.874;6.466;2023-02-19T20:39:48;101586.50;;;6.53;100.00
63115;BME280;49208;50.874;6.466;2023-02-19T20:42:13;101586.50;;;6.48;100.00
63115;BME280;49208;50.874;6.466;2023-02-19T20:44:41;101588.28;;;6.46;100.00
63115;BME280;49208;50.874;6.466;2023-02-19T20:47:06;101586.53;;;6.45;100.00
63115;BME280;49208;50.874;6.466;2023-02-19T20:49:32;101582.97;;;6.45;100.00
63115;BME280;49208;50.874;6.466;2023-02-19T20:52:00;101577.69;;;6.42;100.00
63115;BME280;49208;50.874;6.466;2023-02-19T20:54:28;101580.34;;;6.40;100.00
63115;BME280;49208;50.874;6.466;2023-02-19T20:56:56;101585.63;;;6.40;100.00
63115;BME280;49208;50.874;6.466;2023-02-19T20:59:22;101569.75;;;6.39;100.00
63115;BME280;49208;50.874;6.466;2023-02-19T21:01:49;101568.88;;;6.38;100.00
63115;BME280;49208;50.874;6.466;2023-02-19T21:04:15;101579.47;;;6.35;100.00
63115;BME280;49208;50.874;6.466;2023-02-19T21:06:42;101576.81;;;6.32;100.00
63115;BME280;49208;50.874;6.466;2023-02-19T21:09:07;101589.16;;;6.27;100.00
63115;BME280;49208;50.874;6.466;2023-02-19T21:11:33;101590.03;;;6.23;100.00
63115;BME280;49208;50.874;6.466;2023-02-19T21:13:58;101597.06;;;6.18;100.00
63115;BME280;49208;50.874;6.466;2023-02-19T21:16:29;101597.06;;;6.13;100.00
63115;BME280;49208;50.874;6.466;2023-02-19T21:18:55;101597.94;;;6.07;100.00
63115;BME280;49208;50.874;6.466;2023-02-19T21:21:22;101599.72;;;6.02;100.00
63115;BME280;49208;50.874;6.466;2023-02-19T21:23:53;101619.94;;;5.97;100.00
63115;BME280;49208;50.874;6.466;2023-02-19T21:26:19;101614.59;;;5.91;100.00
63115;BME280;49208;50.874;6.466;2023-02-19T21:28:44;101604.03;;;5.83;100.00
63115;BME280;49208;50.874;6.466;2023-02-19T21:31:10;101607.53;;;5.76;100.00
63115;BME280;49208;50.874;6.466;2023-02-19T21:33:35;101607.50;;;5.70;100.00
63115;BME280;49208;50.874;6.466;2023-02-19T21:36:02;101607.50;;;5.65;100.00
63115;BME280;49208;50.874;6.466;2023-02-19T21:38:28;101603.97;;;5.60;100.00
63115;BME280;49208;50.874;6.466;2023-02-19T21:40:53;101596.91;;;5.55;100.00
63115;BME280;49208;50.874;6.466;2023-02-19T21:43:18;101595.13;;;5.54;100.00
63115;BME280;49208;50.874;6.466;2023-02-19T21:45:44;101595.97;;;5.50;100.00
63115;BME280;49208;50.874;6.466;2023-02-19T21:48:09;101601.25;;;5.45;100.00
63115;BME280;49208;50.874;6.466;2023-02-19T21:50:35;101591.56;;;5.41;100.00
63115;BME280;49208;50.874;6.466;2023-02-19T21:53:00;101586.25;;;5.36;100.00
63115;BME280;49208;50.874;6.466;2023-02-19T21:55:26;101595.91;;;5.31;100.00
63115;BME280;49208;50.874;6.466;2023-02-19T21:57:52;101595.88;;;5.26;100.00